Page Field
KFMY : now visible

Airfield :











YOU CAN JOIN US ON...

 
LOGIN :

Register | Disclaimer

   EN    FR    IT 

 









Legend :    VFR   Marginal VFR   IFR   Intensive IFR   Very Intensive IFR
Visi :
Ceiling :
>= 8 km
>= 3000ft
5 to 8 km
1000 to 3000 ft
1500m to 5 km
500 to 1000 ft
800 to 1500m
200 to 500 ft
< 800m
< 200 ft
Symbols :   Thunderstorms  Fog  Heavy snow  Heavy precipitations  Wind > 20 kt






- Airport Elevation : 17 ft


KFMY - Page Field

CURRENT METAR :
  • 190853Z AUTO 04003KT 10SM CLR 10/06 A3023 RMK AO2 SLP239 T01000061 55000

EXPIRED METARs :
  • 190753Z AUTO 07003KT 10SM CLR 11/06 A3022 RMK AO2 SLP235 T01060061
  • 190653Z AUTO 04004KT 10SM CLR 11/06 A3023 RMK AO2 SLP237 T01060061

TAF KFMY
Valid from the 19 at 06:00 until the 20 at 06:00 UTC


190520Z 1906/2006 VRB03KT P6SM SKC
FM191500 07008KT P6SM SKC
FM192300 VRB04KT P6SM SCT250
KZMA FIR / North America



MET'MAP, your aeronautical weather chart ! - Copyright ORBIFLY December 2007 - Disclaimer

ORBIFLY MET'MAP TEAM :

Programming & Development : Alexandra Zaïnal
Concept & original design : Baudouin d'Aumeries
Assistance for programming : Marc-Olivier Méhu
Technical & hardware support : Manuel Goepfert

Contact : metmap@orbifly.com




SOURCES & CREDITS :

   NOAA       Earth
Advisory